createdAt,value
2018-02-23T00:01:52.060Z,51.47
2018-02-23T00:04:19.788Z,39.60
2018-02-23T00:06:48.105Z,44.70
2018-02-23T00:09:16.361Z,43.07
2018-02-23T00:11:43.937Z,38.30
2018-02-23T00:14:11.551Z,44.37
2018-02-23T00:16:39.185Z,39.03
2018-02-23T00:19:07.557Z,35.53
2018-02-23T00:21:35.273Z,36.77
2018-02-23T00:24:03.058Z,33.90
2018-02-23T00:26:30.658Z,35.90
2018-02-23T00:28:58.281Z,33.50
2018-02-23T00:31:25.848Z,35.03
2018-02-23T00:33:53.536Z,34.80
2018-02-23T00:36:21.113Z,36.17
2018-02-23T00:38:48.681Z,36.30
2018-02-23T00:41:16.265Z,40.53
2018-02-23T00:43:43.827Z,45.40
2018-02-23T00:46:11.397Z,38.83
2018-02-23T00:48:38.949Z,34.03
2018-02-23T00:51:06.528Z,38.13
2018-02-23T00:53:34.083Z,41.17
2018-02-23T00:56:01.657Z,33.77
2018-02-23T00:58:29.208Z,37.33
2018-02-23T01:00:57.552Z,37.87
2018-02-23T01:03:25.110Z,40.27
2018-02-23T01:05:52.720Z,34.50
2018-02-23T01:08:20.274Z,32.80
2018-02-23T01:10:47.830Z,35.60
2018-02-23T01:13:15.425Z,35.57
2018-02-23T01:15:42.993Z,35.10
2018-02-23T01:18:10.565Z,26.43
2018-02-23T01:20:38.121Z,30.97
2018-02-23T01:23:05.697Z,35.30
2018-02-23T01:25:33.265Z,34.47
2018-02-23T01:28:00.852Z,41.10
2018-02-23T01:30:28.410Z,41.63
2018-02-23T01:32:56.014Z,44.03
2018-02-23T01:35:23.592Z,37.97
2018-02-23T01:37:51.918Z,37.10
2018-02-23T01:40:19.486Z,38.83
2018-02-23T01:42:47.053Z,34.70
2018-02-23T01:45:14.686Z,42.57
2018-02-23T01:47:42.246Z,42.30
2018-02-23T01:50:09.821Z,39.97
2018-02-23T01:52:37.386Z,38.70
2018-02-23T01:55:04.968Z,38.37
2018-02-23T01:57:32.524Z,38.33
2018-02-23T02:00:00.107Z,37.73
2018-02-23T02:02:27.678Z,38.17
2018-02-23T02:04:55.260Z,34.10
2018-02-23T02:07:22.816Z,48.03
2018-02-23T02:09:50.418Z,35.97
2018-02-23T02:12:18.741Z,36.00
2018-02-23T02:14:46.301Z,38.43
2018-02-23T02:17:14.649Z,31.93
2018-02-23T02:19:42.226Z,42.33
2018-02-23T02:22:09.807Z,41.03
2018-02-23T02:24:38.161Z,42.37
2018-02-23T02:27:05.834Z,38.37
2018-02-23T02:29:34.096Z,38.67
2018-02-23T02:32:01.675Z,38.33
2018-02-23T02:34:29.233Z,36.63
2018-02-23T02:36:56.812Z,40.17
2018-02-23T02:39:24.383Z,36.00
2018-02-23T02:41:51.994Z,37.40
2018-02-23T02:44:19.557Z,42.13
2018-02-23T02:46:47.122Z,39.77
2018-02-23T02:49:14.713Z,38.37
2018-02-23T02:51:42.279Z,44.37
2018-02-23T02:54:09.848Z,37.40
2018-02-23T02:56:37.400Z,42.63
2018-02-23T02:59:04.982Z,38.60
2018-02-23T03:01:32.534Z,45.67
2018-02-23T03:04:00.121Z,44.03
2018-02-23T03:06:27.690Z,47.93
2018-02-23T03:08:55.270Z,44.87
2018-02-23T03:11:22.816Z,43.47
2018-02-23T03:13:51.186Z,41.30
2018-02-23T03:16:18.741Z,48.67
2018-02-23T03:18:46.304Z,46.63
2018-02-23T03:21:13.883Z,44.83
2018-02-23T03:23:41.473Z,55.93
2018-02-23T03:26:09.052Z,59.60
2018-02-23T03:28:37.364Z,61.33
2018-02-23T03:33:37.810Z,49.73
2018-02-23T03:36:06.178Z,51.53
2018-02-23T03:38:33.733Z,56.13
2018-02-23T03:41:01.305Z,58.10
2018-02-23T03:43:28.856Z,56.83
2018-02-23T03:45:56.452Z,50.50
2018-02-23T03:48:24.082Z,62.83
2018-02-23T03:50:51.682Z,64.50
2018-02-23T03:53:19.238Z,55.17
2018-02-23T03:55:46.817Z,52.57
2018-02-23T03:58:14.365Z,62.27
2018-02-23T04:00:42.721Z,53.97
2018-02-23T04:03:10.281Z,56.77
2018-02-23T04:05:37.840Z,51.83
2018-02-23T04:08:05.412Z,57.47
2018-02-23T04:10:32.960Z,54.30
2018-02-23T04:13:00.535Z,66.23
2018-02-23T04:15:28.084Z,64.50
2018-02-23T04:17:56.425Z,64.53
2018-02-23T04:20:23.973Z,57.40
2018-02-23T04:22:54.150Z,55.70
2018-02-23T04:25:21.715Z,56.53
2018-02-23T04:27:49.289Z,54.83
2018-02-23T04:30:16.848Z,65.87
2018-02-23T04:32:44.418Z,51.10
2018-02-23T04:35:11.968Z,59.00
2018-02-23T04:37:39.556Z,50.20
2018-02-23T04:40:07.115Z,56.80
2018-02-23T04:42:34.668Z,123.80
2018-02-23T04:45:03.353Z,64.50
2018-02-23T04:47:30.963Z,68.13
2018-02-23T04:49:58.541Z,60.97
2018-02-23T04:52:26.209Z,58.00
2018-02-23T04:54:54.010Z,53.03
2018-02-23T04:57:21.647Z,66.03
2018-02-23T04:59:49.221Z,46.83
2018-02-23T05:02:17.600Z,54.90
2018-02-23T05:04:45.182Z,53.30
2018-02-23T05:07:13.429Z,52.13
2018-02-23T05:09:41.764Z,58.60
2018-02-23T05:12:09.311Z,52.40
2018-02-23T05:14:36.950Z,60.47
2018-02-23T05:17:04.496Z,52.40
2018-02-23T05:19:32.086Z,55.20
2018-02-23T05:21:59.653Z,55.27
2018-02-23T05:24:27.229Z,47.23
2018-02-23T05:26:54.804Z,52.90
2018-02-23T05:29:22.411Z,47.00
2018-02-23T05:31:50.008Z,50.47
2018-02-23T05:34:17.580Z,58.43
2018-02-23T05:36:45.165Z,59.93
2018-02-23T05:39:12.717Z,67.57
2018-02-23T05:41:40.281Z,53.53
2018-02-23T05:44:07.857Z,57.07
2018-02-23T05:46:35.430Z,55.43
2018-02-23T05:49:02.989Z,61.90
2018-02-23T05:51:30.881Z,49.77
2018-02-23T05:53:58.448Z,48.60
2018-02-23T05:56:26.012Z,60.87
2018-02-23T05:58:54.330Z,53.47
2018-02-23T06:01:21.938Z,47.00
2018-02-23T06:03:49.499Z,55.50
2018-02-23T06:06:17.056Z,56.30
2018-02-23T06:08:44.632Z,60.37
2018-02-23T06:11:12.193Z,54.67
2018-02-23T06:13:39.769Z,51.13
2018-02-23T06:16:12.946Z,55.70
2018-02-23T06:18:46.289Z,46.83
2018-02-23T06:21:13.847Z,58.80
2018-02-23T06:23:41.430Z,61.60
2018-02-23T06:26:08.984Z,60.47
2018-02-23T06:28:36.559Z,66.13
2018-02-23T06:31:04.135Z,57.97
2018-02-23T06:33:31.777Z,57.60
2018-02-23T06:35:59.333Z,50.47
2018-02-23T06:38:27.673Z,46.57
2018-02-23T06:40:55.218Z,55.60
2018-02-23T06:43:22.814Z,47.97
2018-02-23T06:45:51.137Z,55.03
2018-02-23T06:48:18.683Z,55.50
2018-02-23T06:50:46.248Z,49.03
2018-02-23T06:53:13.801Z,49.77
2018-02-23T06:55:41.376Z,43.00
2018-02-23T06:58:08.957Z,41.60
2018-02-23T07:00:36.532Z,49.00
2018-02-23T07:03:04.081Z,52.10
2018-02-23T07:05:31.648Z,46.03
2018-02-23T07:07:59.192Z,52.97
2018-02-23T07:10:27.540Z,45.90
2018-02-23T07:12:55.088Z,42.00
2018-02-23T07:15:22.662Z,45.43
2018-02-23T07:17:50.216Z,44.37
2018-02-23T07:20:17.784Z,47.93
2018-02-23T07:22:46.100Z,54.27
2018-02-23T07:25:13.670Z,51.20
2018-02-23T07:27:41.221Z,50.60
2018-02-23T07:30:08.778Z,53.87
2018-02-23T07:32:37.165Z,51.60
2018-02-23T07:35:04.708Z,50.30
2018-02-23T07:37:32.298Z,58.73
2018-02-23T07:39:59.868Z,59.97
2018-02-23T07:42:27.473Z,49.73
2018-02-23T07:44:55.141Z,44.50
2018-02-23T07:47:22.737Z,50.67
2018-02-23T07:49:50.321Z,59.20
2018-02-23T07:52:17.898Z,61.13
2018-02-23T07:54:45.449Z,60.57
2018-02-23T07:57:13.037Z,71.63
2018-02-23T07:59:40.592Z,52.07
2018-02-23T08:02:08.158Z,50.20
2018-02-23T08:04:35.704Z,52.80
2018-02-23T08:07:04.045Z,62.20
2018-02-23T08:09:31.606Z,63.70
2018-02-23T08:11:59.179Z,60.23
2018-02-23T08:14:26.752Z,51.13
2018-02-23T08:16:54.315Z,53.30
2018-02-23T08:19:21.893Z,50.00
2018-02-23T08:21:49.442Z,48.80
2018-02-23T08:24:17.008Z,59.90
2018-02-23T08:26:44.565Z,55.37
2018-02-23T08:29:12.141Z,56.90
2018-02-23T08:31:39.690Z,55.57
2018-02-23T08:34:07.301Z,46.23
2018-02-23T08:36:35.627Z,45.57
2018-02-23T08:39:03.196Z,54.63
2018-02-23T08:41:30.748Z,49.87
2018-02-23T08:43:59.101Z,57.67
2018-02-23T08:46:26.654Z,49.93
2018-02-23T08:48:54.232Z,55.87
2018-02-23T08:51:21.800Z,54.77
2018-02-23T08:53:49.353Z,51.87
2018-02-23T08:56:16.924Z,57.97
2018-02-23T08:58:44.496Z,49.50
2018-02-23T09:01:12.068Z,51.23
2018-02-23T09:03:39.620Z,51.63
2018-02-23T09:06:07.201Z,54.27
2018-02-23T09:08:34.753Z,50.73
2018-02-23T09:11:03.089Z,54.33
2018-02-23T09:13:30.637Z,43.50
2018-02-23T09:15:58.208Z,56.63
2018-02-23T09:18:25.760Z,48.30
2018-02-23T09:20:54.107Z,53.27
2018-02-23T09:23:21.653Z,46.23
2018-02-23T09:25:49.218Z,53.10
2018-02-23T09:28:16.768Z,51.73
2018-02-23T09:30:45.129Z,52.87
2018-02-23T09:33:12.692Z,43.80
2018-02-23T09:35:40.245Z,50.67
2018-02-23T09:38:07.816Z,58.03
2018-02-23T09:40:35.364Z,46.97
2018-02-23T09:43:02.935Z,52.93
2018-02-23T09:45:30.484Z,55.13
2018-02-23T09:47:58.821Z,60.37
2018-02-23T09:50:27.156Z,49.23
2018-02-23T09:52:55.497Z,48.70
2018-02-23T09:55:23.813Z,54.50
2018-02-23T09:57:51.381Z,55.70
2018-02-23T10:00:18.940Z,45.03
2018-02-23T10:02:46.517Z,53.73
2018-02-23T10:05:14.065Z,54.33
2018-02-23T10:07:41.637Z,48.63
2018-02-23T10:10:09.192Z,51.30
2018-02-23T10:12:36.784Z,42.30
2018-02-23T10:15:04.334Z,41.83
2018-02-23T10:17:31.916Z,53.47
2018-02-23T10:19:59.498Z,55.07
2018-02-23T10:22:27.072Z,60.40
2018-02-23T10:24:54.648Z,44.20
2018-02-23T10:27:22.220Z,46.50
2018-02-23T10:29:49.796Z,50.60
2018-02-23T10:32:17.367Z,45.37
2018-02-23T10:34:44.941Z,43.87
2018-02-23T10:37:12.527Z,44.10
2018-02-23T10:39:40.101Z,40.30
2018-02-23T10:42:07.656Z,44.87
2018-02-23T10:44:35.234Z,47.90
2018-02-23T10:47:02.792Z,48.17
2018-02-23T10:49:30.378Z,46.40
2018-02-23T10:51:57.927Z,44.70
2018-02-23T10:54:25.488Z,36.03
2018-02-23T10:56:53.059Z,39.40
2018-02-23T10:59:20.608Z,32.87
2018-02-23T11:01:48.946Z,34.50
2018-02-23T11:04:16.500Z,44.00
2018-02-23T11:06:44.113Z,38.87
2018-02-23T11:09:11.664Z,35.60
2018-02-23T11:11:39.245Z,31.50
2018-02-23T11:14:06.809Z,41.00
2018-02-23T11:16:34.385Z,33.53
2018-02-23T11:19:01.956Z,28.50
2018-02-23T11:21:29.576Z,24.43
2018-02-23T11:23:57.896Z,29.67
2018-02-23T11:26:25.484Z,36.53
2018-02-23T11:28:53.040Z,34.30
2018-02-23T11:31:20.593Z,39.43
2018-02-23T11:33:48.173Z,29.07
2018-02-23T11:36:15.732Z,27.80
2018-02-23T11:38:43.596Z,33.80
2018-02-23T11:41:11.920Z,25.60
2018-02-23T11:43:39.497Z,31.67
2018-02-23T11:46:07.041Z,35.20
2018-02-23T11:48:34.631Z,32.33
2018-02-23T11:51:02.205Z,24.23
2018-02-23T11:53:29.783Z,30.23
2018-02-23T11:55:57.364Z,32.70
2018-02-23T11:58:24.934Z,33.00
2018-02-23T12:00:52.529Z,35.03
2018-02-23T12:03:20.129Z,26.17
2018-02-23T12:05:48.450Z,31.30
2018-02-23T12:08:16.010Z,31.17
2018-02-23T12:10:43.601Z,33.67
2018-02-23T12:13:11.160Z,34.33
2018-02-23T12:15:38.816Z,35.07
2018-02-23T12:18:06.385Z,30.40
2018-02-23T12:20:34.721Z,39.00
2018-02-23T12:23:02.281Z,36.67
2018-02-23T12:25:29.858Z,37.30
2018-02-23T12:27:57.412Z,36.70
2018-02-23T12:30:24.987Z,30.47
2018-02-23T12:32:52.538Z,40.07
2018-02-23T12:35:20.909Z,32.70
2018-02-23T12:37:48.462Z,31.80
2018-02-23T12:40:16.061Z,32.97
2018-02-23T12:42:44.380Z,25.90
2018-02-23T12:45:11.937Z,31.50
2018-02-23T12:47:40.281Z,42.53
2018-02-23T12:50:07.881Z,31.63
2018-02-23T12:52:35.456Z,30.80
2018-02-23T12:55:03.017Z,27.77
2018-02-23T12:57:31.365Z,36.70
2018-02-23T12:59:58.918Z,31.50
2018-02-23T13:02:26.496Z,30.40
2018-02-23T13:04:54.058Z,25.37
2018-02-23T13:07:21.633Z,27.40
2018-02-23T13:09:49.173Z,23.20
2018-02-23T13:12:16.746Z,29.73
2018-02-23T13:14:49.900Z,30.63
2018-02-23T13:17:17.485Z,32.83
2018-02-23T13:19:45.057Z,22.87
2018-02-23T13:22:12.685Z,26.73
2018-02-23T13:24:41.012Z,34.07
2018-02-23T13:27:15.082Z,26.93
2018-02-23T13:29:42.648Z,32.87
2018-02-23T13:32:10.197Z,30.90
2018-02-23T13:34:37.788Z,24.13
2018-02-23T13:37:05.346Z,24.37
2018-02-23T13:39:32.933Z,29.97
2018-02-23T13:42:00.499Z,26.97
2018-02-23T13:44:28.077Z,27.17
2018-02-23T13:46:55.627Z,31.20
2018-02-23T13:49:23.241Z,27.17
2018-02-23T13:51:50.793Z,28.10
2018-02-23T13:54:24.181Z,26.63
2018-02-23T13:56:51.739Z,29.07
2018-02-23T13:59:19.314Z,33.33
2018-02-23T14:01:46.878Z,23.20
2018-02-23T14:04:14.455Z,27.17
2018-02-23T14:06:42.045Z,31.87
2018-02-23T14:09:09.813Z,30.47
2018-02-23T14:11:37.416Z,29.43
2018-02-23T14:14:04.990Z,31.60
2018-02-23T14:16:33.317Z,34.77
2018-02-23T14:19:00.890Z,38.43
2018-02-23T14:21:28.449Z,34.47
2018-02-23T14:23:56.031Z,30.60
2018-02-23T14:26:23.591Z,33.00
2018-02-23T14:28:51.161Z,38.63
2018-02-23T14:31:18.715Z,39.83
2018-02-23T14:33:46.287Z,32.30
2018-02-23T14:36:14.606Z,34.30
2018-02-23T14:38:42.206Z,33.03
2018-02-23T14:41:09.772Z,34.97
2018-02-23T14:43:37.333Z,31.00
2018-02-23T14:46:04.913Z,28.57
2018-02-23T14:48:44.869Z,32.57
2018-02-23T14:51:12.463Z,25.93
2018-02-23T14:53:40.008Z,26.27
2018-02-23T14:56:07.582Z,27.60
2018-02-23T14:58:35.136Z,21.57
2018-02-23T15:01:02.718Z,28.00
2018-02-23T15:03:30.277Z,32.47
2018-02-23T15:05:57.865Z,19.27
2018-02-23T15:08:25.408Z,31.57
2018-02-23T15:10:53.753Z,25.93
2018-02-23T15:13:21.301Z,31.53
2018-02-23T15:15:48.880Z,22.57
2018-02-23T15:18:16.432Z,24.43
2018-02-23T15:20:44.032Z,19.30
2018-02-23T15:23:11.590Z,22.00
2018-02-23T15:25:39.143Z,18.33
2018-02-23T15:28:06.713Z,20.17
2018-02-23T15:30:46.110Z,30.50
2018-02-23T15:33:13.673Z,20.33
2018-02-23T15:35:41.231Z,30.00
2018-02-23T15:38:08.802Z,27.80
2018-02-23T15:40:36.360Z,30.80
2018-02-23T15:43:03.934Z,28.40
2018-02-23T15:45:31.482Z,34.77
2018-02-23T15:47:59.822Z,23.23
2018-02-23T15:50:33.153Z,21.17
2018-02-23T15:53:00.715Z,20.93
2018-02-23T15:55:28.294Z,30.67
2018-02-23T15:57:57.097Z,19.73
2018-02-23T16:00:24.649Z,25.80
2018-02-23T16:02:52.219Z,25.97
2018-02-23T16:05:19.773Z,18.43
2018-02-23T16:07:47.349Z,19.50
2018-02-23T16:10:14.924Z,18.47
2018-02-23T16:12:42.490Z,19.87
2018-02-23T16:15:10.081Z,30.33
2018-02-23T16:17:37.641Z,18.47
2018-02-23T16:20:05.206Z,26.23
2018-02-23T16:22:32.758Z,26.50
2018-02-23T16:25:00.331Z,22.60
2018-02-23T16:27:27.900Z,25.07
2018-02-23T16:29:55.473Z,25.70
2018-02-23T16:32:23.037Z,20.10
2018-02-23T16:34:50.619Z,22.67
2018-02-23T16:37:18.175Z,21.97
2018-02-23T16:39:46.514Z,24.60
2018-02-23T16:42:14.061Z,19.97
2018-02-23T16:44:41.628Z,20.63
2018-02-23T16:47:14.831Z,26.57
2018-02-23T16:49:42.386Z,19.20
2018-02-23T16:52:10.748Z,23.53
2018-02-23T16:54:38.310Z,17.57
2018-02-23T16:57:05.891Z,23.80
2018-02-23T16:59:33.485Z,19.50
2018-02-23T17:02:01.826Z,18.17
2018-02-23T17:04:29.368Z,19.70
2018-02-23T17:06:57.849Z,19.07
2018-02-23T17:09:25.409Z,21.37
2018-02-23T17:11:53.831Z,15.80
2018-02-23T17:14:26.919Z,20.43
2018-02-23T17:16:54.674Z,25.77
2018-02-23T17:19:23.033Z,16.03
2018-02-23T17:21:50.602Z,26.77
2018-02-23T17:24:18.273Z,15.43
2018-02-23T17:26:45.849Z,21.97
2018-02-23T17:29:13.420Z,15.27
2018-02-23T17:31:40.966Z,19.90
2018-02-23T17:34:08.537Z,14.00
2018-02-23T17:36:36.092Z,14.97
2018-02-23T17:39:03.662Z,18.70
2018-02-23T17:41:31.233Z,17.73
2018-02-23T17:43:58.821Z,18.93
2018-02-23T17:46:26.675Z,15.20
2018-02-23T17:48:55.005Z,22.33
2018-02-23T17:51:24.850Z,23.83
2018-02-23T17:53:52.417Z,14.27
2018-02-23T17:56:19.965Z,22.00
2018-02-23T17:58:47.544Z,13.50
2018-02-23T18:01:15.123Z,20.90
2018-02-23T18:03:42.709Z,19.37
2018-02-23T18:06:10.260Z,23.83
2018-02-23T18:08:38.582Z,21.17
2018-02-23T18:11:06.153Z,25.70
2018-02-23T18:13:33.705Z,17.23
2018-02-23T18:16:01.273Z,25.97
2018-02-23T18:18:28.836Z,17.77
2018-02-23T18:20:56.408Z,31.50
2018-02-23T18:23:24.176Z,21.97
2018-02-23T18:25:51.761Z,24.60
2018-02-23T18:28:19.308Z,22.07
2018-02-23T18:30:46.867Z,23.70
2018-02-23T18:33:14.429Z,25.47
2018-02-23T18:35:41.991Z,29.70
2018-02-23T18:38:10.306Z,25.37
2018-02-23T18:40:37.881Z,21.90
2018-02-23T18:43:05.437Z,26.00
2018-02-23T18:45:33.814Z,24.27
2018-02-23T18:48:02.225Z,23.63
2018-02-23T18:50:29.854Z,33.77
2018-02-23T18:52:58.209Z,31.13
2018-02-23T18:55:25.816Z,25.20
2018-02-23T18:57:53.448Z,38.30
2018-02-23T19:00:21.018Z,87.03
2018-02-23T19:02:48.693Z,80.77
2018-02-23T19:05:17.283Z,49.97
2018-02-23T19:07:44.836Z,99.17
2018-02-23T19:10:13.189Z,67.53
2018-02-23T19:12:40.770Z,30.07
2018-02-23T19:15:08.407Z,29.33
2018-02-23T19:17:36.018Z,25.77
2018-02-23T19:20:03.585Z,33.03
2018-02-23T19:22:31.187Z,23.50
2018-02-23T19:25:01.831Z,33.40
2018-02-23T19:27:29.413Z,28.20
2018-02-23T19:29:56.961Z,26.30
2018-02-23T19:32:24.537Z,20.97
2018-02-23T19:34:52.860Z,23.57
2018-02-23T19:37:20.437Z,25.13
2018-02-23T19:39:48.003Z,23.00
2018-02-23T19:42:15.585Z,21.53
2018-02-23T19:44:43.142Z,28.70
2018-02-23T19:47:10.716Z,26.20
2018-02-23T19:49:38.294Z,19.80
2018-02-23T19:52:05.865Z,23.37
2018-02-23T19:54:33.435Z,27.07
2018-02-23T19:57:02.953Z,22.40
2018-02-23T19:59:30.509Z,26.03
2018-02-23T20:01:58.097Z,23.27
2018-02-23T20:04:25.644Z,24.73
2018-02-23T20:06:54.004Z,28.50
2018-02-23T20:09:21.553Z,24.20
2018-02-23T20:11:49.093Z,27.73
2018-02-23T20:14:16.665Z,22.73
2018-02-23T20:16:44.228Z,23.33
2018-02-23T20:19:11.801Z,21.43
2018-02-23T20:21:39.359Z,16.67
2018-02-23T20:24:07.696Z,19.37
2018-02-23T20:26:35.248Z,19.77
2018-02-23T20:29:02.839Z,19.60
2018-02-23T20:31:30.402Z,18.60
2018-02-23T20:33:57.969Z,13.50
2018-02-23T20:36:25.540Z,20.43
2018-02-23T20:38:54.114Z,19.10
2018-02-23T20:41:28.937Z,28.33
2018-02-23T20:44:00.961Z,21.40
2018-02-23T20:46:28.514Z,18.33
2018-02-23T20:48:56.086Z,18.33
2018-02-23T20:51:23.655Z,23.00
2018-02-23T20:53:51.237Z,16.87
2018-02-23T20:56:19.578Z,17.63
2018-02-23T20:58:47.169Z,15.90
2018-02-23T21:01:15.482Z,24.80
2018-02-23T21:03:48.762Z,25.80
2018-02-23T21:06:16.828Z,20.00
2018-02-23T21:08:44.401Z,21.87
2018-02-23T21:11:11.976Z,18.30
2018-02-23T21:13:39.530Z,20.23
2018-02-23T21:16:14.237Z,14.83
2018-02-23T21:18:42.414Z,22.13
2018-02-23T21:21:09.988Z,16.40
2018-02-23T21:23:37.559Z,16.00
2018-02-23T21:26:05.144Z,15.37
2018-02-23T21:28:32.694Z,19.70
2018-02-23T21:31:01.031Z,21.03
2018-02-23T21:33:28.614Z,22.87
2018-02-23T21:35:56.237Z,25.00
2018-02-23T21:38:23.792Z,27.50
2018-02-23T21:40:52.121Z,26.17
2018-02-23T21:43:20.507Z,22.30
2018-02-23T21:45:48.144Z,24.07
2018-02-23T21:48:17.521Z,18.73
2018-02-23T21:50:45.127Z,15.60
2018-02-23T21:53:14.480Z,23.63
2018-02-23T21:55:42.028Z,39.87
2018-02-23T21:58:09.612Z,43.97
2018-02-23T22:00:38.085Z,28.73
2018-02-23T22:03:05.683Z,27.40
2018-02-23T22:05:33.329Z,31.73
2018-02-23T22:08:01.693Z,27.83
2018-02-23T22:10:30.055Z,25.97
2018-02-23T22:12:57.632Z,24.57
2018-02-23T22:15:25.225Z,23.77
2018-02-23T22:17:53.690Z,25.30
2018-02-23T22:20:21.377Z,25.07
2018-02-23T22:22:48.944Z,24.33
2018-02-23T22:25:16.698Z,29.87
2018-02-23T22:27:45.097Z,25.07
2018-02-23T22:30:14.812Z,18.70
2018-02-23T22:32:42.357Z,25.20
2018-02-23T22:35:10.706Z,25.60
2018-02-23T22:37:38.248Z,22.93
2018-02-23T22:40:05.809Z,20.67
2018-02-23T22:42:33.380Z,25.70
2018-02-23T22:45:00.940Z,26.43
2018-02-23T22:47:28.493Z,25.43
2018-02-23T22:49:56.076Z,21.63
2018-02-23T22:52:23.665Z,32.23
2018-02-23T22:54:52.010Z,22.27
2018-02-23T22:57:19.573Z,25.53
2018-02-23T22:59:47.123Z,23.83
2018-02-23T23:02:14.693Z,20.80
2018-02-23T23:04:42.247Z,26.00
2018-02-23T23:07:13.692Z,25.87
2018-02-23T23:09:41.233Z,24.20
2018-02-23T23:12:08.826Z,28.73
2018-02-23T23:14:37.146Z,24.73
2018-02-23T23:17:04.716Z,34.67
2018-02-23T23:19:32.310Z,25.53
2018-02-23T23:21:59.946Z,22.10
2018-02-23T23:24:27.497Z,31.70
2018-02-23T23:26:55.081Z,23.40
2018-02-23T23:29:22.644Z,24.03
2018-02-23T23:31:50.196Z,20.83
2018-02-23T23:34:17.769Z,26.27
2018-02-23T23:36:45.321Z,30.17
2018-02-23T23:39:13.665Z,24.67
2018-02-23T23:41:41.219Z,20.87
2018-02-23T23:44:08.810Z,28.20
2018-02-23T23:46:36.360Z,23.67
2018-02-23T23:49:03.926Z,21.67
2018-02-23T23:51:31.548Z,21.67
2018-02-23T23:53:59.133Z,24.80
2018-02-23T23:56:27.467Z,29.17
2018-02-23T23:58:55.070Z,24.20
